createdAt,value
2022-12-01T00:01:29.607Z,37.58
2022-12-01T00:03:59.836Z,38.45
2022-12-01T00:06:27.720Z,30.25
2022-12-01T00:09:19.231Z,30.15
2022-12-01T00:11:48.332Z,35.30
2022-12-01T00:14:16.833Z,36.85
2022-12-01T00:16:45.187Z,36.55
2022-12-01T00:19:14.559Z,34.20
2022-12-01T00:21:42.529Z,35.47
2022-12-01T00:24:11.853Z,30.65
2022-12-01T00:26:40.163Z,33.95
2022-12-01T00:29:09.216Z,41.38
2022-12-01T00:31:37.485Z,37.15
2022-12-01T00:34:09.707Z,36.22
2022-12-01T00:36:40.867Z,37.88
2022-12-01T00:39:08.674Z,34.47
2022-12-01T00:41:36.602Z,39.75
2022-12-01T00:44:04.657Z,31.92
2022-12-01T00:46:32.695Z,39.13
2022-12-01T00:49:00.775Z,34.60
2022-12-01T00:51:28.697Z,34.63
2022-12-01T00:53:58.452Z,33.42
2022-12-01T00:56:26.326Z,34.42
2022-12-01T00:58:54.217Z,37.88
2022-12-01T01:01:22.193Z,38.65
2022-12-01T01:03:50.162Z,33.05
2022-12-01T01:06:18.182Z,35.45
2022-12-01T01:08:46.304Z,37.92
2022-12-01T01:11:15.525Z,37.03
2022-12-01T01:13:43.494Z,36.88
2022-12-01T01:16:16.741Z,36.47
2022-12-01T01:18:44.847Z,35.80
2022-12-01T01:21:15.603Z,36.30
2022-12-01T01:23:43.562Z,38.85
2022-12-01T01:26:13.994Z,41.60
2022-12-01T01:28:43.306Z,32.88
2022-12-01T01:31:14.192Z,39.70
2022-12-01T01:33:42.775Z,39.17
2022-12-01T01:36:11.343Z,37.95
2022-12-01T01:38:39.336Z,43.70
2022-12-01T01:41:07.949Z,42.50
2022-12-01T01:43:48.497Z,38.40
2022-12-01T01:46:18.565Z,39.50
2022-12-01T01:48:50.724Z,37.58
2022-12-01T01:51:23.695Z,40.05
2022-12-01T01:53:55.621Z,41.30
2022-12-01T01:56:24.184Z,45.90
2022-12-01T01:58:54.211Z,46.67
2022-12-01T02:01:22.949Z,40.28
2022-12-01T02:03:53.420Z,41.92
2022-12-01T02:06:22.066Z,45.80
2022-12-01T02:08:50.085Z,38.35
2022-12-01T02:11:49.404Z,44.67
2022-12-01T02:14:40.560Z,45.42
2022-12-01T02:17:23.413Z,40.45
2022-12-01T02:20:17.788Z,43.83
2022-12-01T02:22:55.212Z,50.10
2022-12-01T02:25:34.402Z,39.03
2022-12-01T02:28:44.178Z,38.13
2022-12-01T02:31:18.111Z,37.78
2022-12-01T02:33:55.044Z,44.53
2022-12-01T02:36:31.435Z,43.13
2022-12-01T02:39:06.953Z,42.95
2022-12-01T02:41:40.231Z,42.88
2022-12-01T02:44:14.970Z,45.20
2022-12-01T02:46:48.626Z,45.30
2022-12-01T02:49:20.233Z,47.30
2022-12-01T02:51:50.211Z,43.67
2022-12-01T02:54:19.047Z,44.17
2022-12-01T02:56:47.406Z,39.65
2022-12-01T02:59:16.297Z,42.55
2022-12-01T03:02:05.775Z,43.30
2022-12-01T03:04:46.360Z,44.42
2022-12-01T03:07:27.271Z,48.13
2022-12-01T03:10:05.818Z,45.95
2022-12-01T03:12:40.241Z,42.72
2022-12-01T03:15:12.204Z,46.35
2022-12-01T03:17:57.151Z,53.83
2022-12-01T03:20:35.898Z,49.03
2022-12-01T03:23:09.610Z,51.65
2022-12-01T03:25:39.002Z,50.63
2022-12-01T03:28:24.853Z,52.95
2022-12-01T03:30:58.735Z,61.95
2022-12-01T03:33:32.580Z,54.35
2022-12-01T03:36:05.663Z,55.17
2022-12-01T03:38:36.338Z,54.90
2022-12-01T03:41:10.416Z,55.80
2022-12-01T03:43:44.122Z,60.33
2022-12-01T03:46:18.585Z,59.35
2022-12-01T03:48:48.041Z,66.30
2022-12-01T03:51:22.253Z,56.30
2022-12-01T03:53:56.825Z,61.25
2022-12-01T03:56:30.618Z,61.45
2022-12-01T03:59:01.268Z,61.60
2022-12-01T04:01:32.839Z,65.90
2022-12-01T04:04:07.118Z,64.47
2022-12-01T04:06:35.223Z,56.75
2022-12-01T04:09:03.393Z,61.03
2022-12-01T04:11:48.755Z,57.13
2022-12-01T04:14:16.623Z,57.60
2022-12-01T04:16:44.646Z,57.65
2022-12-01T04:19:13.870Z,62.90
2022-12-01T04:21:41.909Z,66.38
2022-12-01T04:24:10.244Z,57.45
2022-12-01T04:26:38.553Z,60.17
2022-12-01T04:29:08.394Z,59.10
2022-12-01T04:31:36.444Z,61.90
2022-12-01T04:34:05.103Z,58.40
2022-12-01T04:36:35.911Z,56.30
2022-12-01T04:39:04.870Z,63.58
2022-12-01T04:41:32.790Z,64.55
2022-12-01T04:44:00.788Z,58.58
2022-12-01T04:46:29.016Z,59.38
2022-12-01T04:48:57.005Z,54.58
2022-12-01T04:51:24.965Z,49.45
2022-12-01T04:53:54.224Z,53.70
2022-12-01T04:56:22.357Z,51.40
2022-12-01T04:58:50.359Z,44.08
2022-12-01T05:01:19.697Z,49.45
2022-12-01T05:03:50.326Z,57.45
2022-12-01T05:06:20.458Z,52.00
2022-12-01T05:08:49.234Z,50.47
2022-12-01T05:11:19.628Z,52.08
2022-12-01T05:13:49.465Z,51.60
2022-12-01T05:16:19.546Z,52.97
2022-12-01T05:18:50.603Z,52.13
2022-12-01T05:21:18.352Z,61.05
2022-12-01T05:23:46.617Z,54.28
2022-12-01T05:26:14.753Z,45.58
2022-12-01T05:28:44.094Z,51.22
2022-12-01T05:31:15.755Z,53.97
2022-12-01T05:33:43.784Z,53.38
2022-12-01T05:36:11.791Z,50.03
2022-12-01T05:38:39.619Z,48.47
2022-12-01T05:41:07.811Z,48.88
2022-12-01T05:43:35.860Z,62.03
2022-12-01T05:46:05.385Z,53.25
2022-12-01T05:48:33.456Z,57.88
2022-12-01T05:51:01.475Z,55.17
2022-12-01T05:53:29.879Z,64.65
2022-12-01T05:55:57.760Z,69.00
2022-12-01T05:58:25.728Z,62.75
2022-12-01T06:00:53.647Z,59.35
2022-12-01T06:03:23.004Z,62.75
2022-12-01T06:05:51.255Z,58.88
2022-12-01T06:08:19.256Z,53.88
2022-12-01T06:10:48.179Z,54.90
2022-12-01T06:13:16.309Z,50.72
2022-12-01T06:15:44.364Z,56.90
2022-12-01T06:18:12.257Z,48.10
2022-12-01T06:20:41.449Z,55.03
2022-12-01T06:23:11.937Z,59.00
2022-12-01T06:25:39.948Z,55.55
2022-12-01T06:28:07.829Z,51.67
2022-12-01T06:30:35.758Z,47.88
2022-12-01T06:33:03.854Z,60.47
2022-12-01T06:35:31.777Z,51.40
2022-12-01T06:38:01.258Z,49.70
2022-12-01T06:40:29.466Z,47.05
2022-12-01T06:43:01.526Z,53.42
2022-12-01T06:45:30.014Z,48.00
2022-12-01T06:47:58.805Z,50.17
2022-12-01T06:50:27.847Z,44.80
2022-12-01T06:52:55.902Z,51.53
2022-12-01T06:55:25.529Z,50.95
2022-12-01T06:57:53.946Z,52.42
2022-12-01T07:00:22.916Z,49.05
2022-12-01T07:02:50.906Z,48.90
2022-12-01T07:05:18.905Z,51.00
2022-12-01T07:07:47.012Z,46.90
2022-12-01T07:10:15.207Z,43.50
2022-12-01T07:12:44.559Z,53.78
2022-12-01T07:15:13.566Z,46.13
2022-12-01T07:17:41.361Z,44.55
2022-12-01T07:20:11.367Z,44.83
2022-12-01T07:22:39.955Z,42.10
2022-12-01T07:25:08.752Z,46.78
2022-12-01T07:27:37.038Z,46.85
2022-12-01T07:30:07.921Z,43.67
2022-12-01T07:32:36.057Z,41.45
2022-12-01T07:35:06.342Z,41.65
2022-12-01T07:37:34.274Z,49.88
2022-12-01T07:40:02.309Z,51.50
2022-12-01T07:42:30.208Z,39.38
2022-12-01T07:44:58.286Z,41.35
2022-12-01T07:47:27.694Z,44.25
2022-12-01T07:49:55.773Z,52.28
2022-12-01T07:52:23.705Z,46.55
2022-12-01T07:54:52.696Z,49.55
2022-12-01T07:57:20.642Z,52.50
2022-12-01T07:59:49.075Z,48.13
2022-12-01T08:02:17.313Z,52.22
2022-12-01T08:04:46.717Z,52.13
2022-12-01T08:07:14.664Z,52.13
2022-12-01T08:09:42.619Z,72.65
2022-12-01T08:12:10.500Z,66.30
2022-12-01T08:14:38.451Z,65.28
2022-12-01T08:17:06.417Z,62.25
2022-12-01T08:19:34.311Z,61.33
2022-12-01T08:22:03.507Z,62.05
2022-12-01T08:24:31.493Z,63.85
2022-12-01T08:26:59.336Z,51.25
2022-12-01T08:29:27.292Z,55.38
2022-12-01T08:31:55.274Z,53.45
2022-12-01T08:34:23.559Z,49.58
2022-12-01T08:36:51.388Z,45.65
2022-12-01T08:39:20.812Z,46.40
2022-12-01T08:41:48.832Z,51.20
2022-12-01T08:44:16.699Z,56.13
2022-12-01T08:46:44.653Z,53.70
2022-12-01T08:49:12.667Z,52.42
2022-12-01T08:51:40.757Z,52.15
2022-12-01T08:54:08.729Z,53.95
2022-12-01T08:56:41.422Z,49.53
2022-12-01T08:59:10.323Z,45.53
2022-12-01T09:01:52.137Z,56.05
2022-12-01T09:04:21.206Z,58.05
2022-12-01T09:06:50.492Z,47.08
2022-12-01T09:09:20.989Z,55.08
2022-12-01T09:11:52.183Z,58.53
2022-12-01T09:14:21.648Z,57.13
2022-12-01T09:16:51.087Z,59.45
2022-12-01T09:19:24.630Z,57.90
2022-12-01T09:21:53.449Z,58.25
2022-12-01T09:24:24.734Z,52.63
2022-12-01T09:26:57.722Z,59.53
2022-12-01T09:29:26.619Z,47.75
2022-12-01T09:31:56.379Z,43.30
2022-12-01T09:34:24.854Z,44.70
2022-12-01T09:36:56.308Z,43.08
2022-12-01T09:39:24.797Z,44.78
2022-12-01T09:41:58.744Z,41.97
2022-12-01T09:44:36.890Z,40.40
2022-12-01T09:47:12.842Z,53.15
2022-12-01T09:49:51.340Z,50.50
2022-12-01T09:52:22.001Z,49.63
2022-12-01T09:54:50.259Z,55.97
2022-12-01T09:57:31.267Z,47.75
2022-12-01T10:00:00.953Z,42.63
2022-12-01T10:02:35.600Z,48.17
2022-12-01T10:05:07.798Z,49.08
2022-12-01T10:07:41.750Z,45.22
2022-12-01T10:10:16.182Z,40.42
2022-12-01T10:12:48.164Z,39.53
2022-12-01T10:15:26.122Z,52.35
2022-12-01T10:18:06.578Z,44.63
2022-12-01T10:20:43.512Z,55.45
2022-12-01T10:23:28.600Z,46.53
2022-12-01T10:25:59.453Z,49.85
2022-12-01T10:28:54.351Z,52.25
2022-12-01T10:31:28.583Z,59.53
2022-12-01T10:34:02.677Z,52.63
2022-12-01T10:36:33.089Z,57.60
2022-12-01T10:39:01.962Z,48.83
2022-12-01T10:41:33.359Z,55.10
2022-12-01T10:44:05.655Z,55.88
2022-12-01T10:46:41.925Z,50.63
2022-12-01T10:49:11.916Z,53.83
2022-12-01T10:52:03.840Z,57.88
2022-12-01T10:54:35.377Z,41.20
2022-12-01T10:57:04.814Z,42.17
2022-12-01T10:59:38.933Z,46.65
2022-12-01T11:02:17.211Z,44.75
2022-12-01T11:04:52.219Z,53.75
2022-12-01T11:07:23.441Z,48.97
2022-12-01T11:10:02.967Z,52.97
2022-12-01T11:12:31.174Z,49.15
2022-12-01T11:15:01.147Z,45.03
2022-12-01T11:17:36.046Z,48.80
2022-12-01T11:20:30.848Z,54.47
2022-12-01T11:23:24.762Z,47.08
2022-12-01T11:26:06.584Z,48.08
2022-12-01T11:28:36.126Z,51.15
2022-12-01T11:31:08.627Z,48.40
2022-12-01T11:33:45.794Z,48.80
2022-12-01T11:36:22.469Z,49.92
2022-12-01T11:38:51.845Z,54.97
2022-12-01T11:41:32.291Z,56.03
2022-12-01T11:44:04.107Z,46.38
2022-12-01T11:46:50.189Z,41.40
2022-12-01T11:49:26.244Z,55.08
2022-12-01T11:51:54.229Z,48.70
2022-12-01T11:54:24.912Z,50.63
2022-12-01T11:57:25.421Z,40.67
2022-12-01T11:59:42.322Z,50.20
2022-12-01T12:02:25.175Z,49.72
2022-12-01T12:05:16.344Z,43.70
2022-12-01T12:07:59.753Z,47.42
2022-12-01T12:10:42.789Z,46.50
2022-12-01T12:13:40.637Z,44.35
2022-12-01T12:16:18.040Z,50.83
2022-12-01T12:19:15.053Z,41.42
2022-12-01T12:21:53.607Z,54.55
2022-12-01T12:24:42.971Z,50.22
2022-12-01T12:27:21.080Z,47.88
2022-12-01T12:30:03.334Z,54.45
2022-12-01T12:33:04.129Z,57.63
2022-12-01T12:35:41.844Z,51.35
2022-12-01T12:38:18.051Z,51.30
2022-12-01T12:40:56.061Z,41.58
2022-12-01T12:43:33.290Z,43.83
2022-12-01T12:46:06.062Z,51.72
2022-12-01T12:49:18.771Z,45.20
2022-12-01T12:51:52.209Z,49.88
2022-12-01T12:54:28.097Z,47.45
2022-12-01T12:57:01.914Z,47.78
2022-12-01T12:59:37.289Z,46.65
2022-12-01T13:02:13.995Z,46.95
2022-12-01T13:04:52.230Z,44.85
2022-12-01T13:07:34.500Z,53.92
2022-12-01T13:10:10.319Z,44.15
2022-12-01T13:12:41.790Z,44.03
2022-12-01T13:15:17.562Z,36.13
2022-12-01T13:17:49.638Z,44.45
2022-12-01T13:20:20.358Z,42.10
2022-12-01T13:22:50.660Z,44.10
2022-12-01T13:25:24.669Z,41.72
2022-12-01T13:27:54.244Z,46.63
2022-12-01T13:30:24.534Z,41.42
2022-12-01T13:33:01.089Z,40.63
2022-12-01T13:35:32.624Z,38.85
2022-12-01T13:38:24.887Z,33.15
2022-12-01T13:41:11.904Z,43.88
2022-12-01T13:44:04.334Z,43.97
2022-12-01T13:46:50.559Z,54.80
2022-12-01T13:49:36.816Z,41.83
2022-12-01T13:52:29.984Z,46.63
2022-12-01T13:55:22.107Z,46.58
2022-12-01T13:58:14.049Z,42.08
2022-12-01T14:00:43.626Z,44.67
2022-12-01T14:03:38.701Z,43.22
2022-12-01T14:06:10.705Z,47.63
2022-12-01T14:08:47.959Z,44.95
2022-12-01T14:11:26.004Z,43.22
2022-12-01T14:13:59.414Z,48.38
2022-12-01T14:16:46.997Z,41.80
2022-12-01T14:19:31.540Z,50.70
2022-12-01T14:22:01.096Z,39.58
2022-12-01T14:24:34.689Z,45.40
2022-12-01T14:27:05.748Z,41.30
2022-12-01T14:29:35.063Z,41.25
2022-12-01T14:32:27.001Z,43.10
2022-12-01T14:35:06.802Z,41.00
2022-12-01T14:37:41.393Z,42.58
2022-12-01T14:40:19.566Z,37.30
2022-12-01T14:43:12.422Z,51.30
2022-12-01T14:45:44.164Z,47.67
2022-12-01T14:48:15.449Z,50.75
2022-12-01T14:50:50.284Z,38.72
2022-12-01T14:53:24.680Z,56.05
2022-12-01T14:55:57.774Z,49.55
2022-12-01T14:58:29.631Z,42.60
2022-12-01T15:01:05.900Z,52.55
2022-12-01T15:03:39.268Z,51.97
2022-12-01T15:06:07.952Z,56.20
2022-12-01T15:08:45.750Z,55.13
2022-12-01T15:11:22.713Z,48.83
2022-12-01T15:13:53.412Z,58.40
2022-12-01T15:16:23.700Z,55.65
2022-12-01T15:18:53.220Z,58.15
2022-12-01T15:21:24.789Z,50.55
2022-12-01T15:23:57.980Z,54.67
2022-12-01T15:26:28.280Z,56.45
2022-12-01T15:29:16.004Z,54.30
2022-12-01T15:31:47.736Z,52.55
2022-12-01T15:34:20.033Z,44.17
2022-12-01T15:36:49.405Z,55.95
2022-12-01T15:39:21.953Z,47.13
2022-12-01T15:41:54.136Z,46.08
2022-12-01T15:44:29.237Z,51.20
2022-12-01T15:46:57.795Z,49.13
2022-12-01T15:49:29.621Z,46.50
2022-12-01T15:52:07.883Z,50.60
2022-12-01T15:54:38.152Z,45.40
2022-12-01T15:57:07.466Z,46.17
2022-12-01T15:59:40.274Z,35.33
2022-12-01T16:02:26.816Z,42.72
2022-12-01T16:05:03.248Z,44.35
2022-12-01T16:08:11.676Z,47.15
2022-12-01T16:10:30.369Z,48.53
2022-12-01T16:13:36.307Z,56.95
2022-12-01T16:16:31.734Z,53.38
2022-12-01T16:19:03.094Z,46.88
2022-12-01T16:21:35.116Z,45.60
2022-12-01T16:24:04.949Z,43.03
2022-12-01T16:26:34.562Z,41.80
2022-12-01T16:29:02.493Z,51.38
2022-12-01T16:31:33.311Z,51.40
2022-12-01T16:34:13.816Z,44.72
2022-12-01T16:36:47.319Z,49.00
2022-12-01T16:39:15.788Z,46.72
2022-12-01T16:41:46.683Z,49.90
2022-12-01T16:44:30.873Z,42.92
2022-12-01T16:47:00.106Z,39.42
2022-12-01T16:49:28.564Z,48.80
2022-12-01T16:51:57.418Z,43.33
2022-12-01T16:54:26.396Z,44.65
2022-12-01T16:56:54.222Z,37.42
2022-12-01T16:59:22.079Z,45.45
2022-12-01T17:01:50.102Z,49.78
2022-12-01T17:04:19.396Z,44.05
2022-12-01T17:06:47.392Z,37.90
2022-12-01T17:09:15.242Z,44.90
2022-12-01T17:11:43.318Z,50.33
2022-12-01T17:14:11.216Z,48.13
2022-12-01T17:16:39.452Z,46.17
2022-12-01T17:19:07.414Z,43.90
2022-12-01T17:21:36.734Z,47.72
2022-12-01T17:24:07.022Z,50.67
2022-12-01T17:26:35.734Z,42.85
2022-12-01T17:29:03.802Z,51.28
2022-12-01T17:31:32.027Z,46.80
2022-12-01T17:33:59.987Z,47.80
2022-12-01T17:36:27.824Z,41.38
2022-12-01T17:38:58.683Z,55.05
2022-12-01T17:41:32.176Z,53.13
2022-12-01T17:44:03.492Z,50.72
2022-12-01T17:46:31.752Z,58.38
2022-12-01T17:48:59.834Z,61.45
2022-12-01T17:51:27.986Z,58.85
2022-12-01T17:53:57.281Z,58.78
2022-12-01T17:56:25.279Z,45.72
2022-12-01T17:58:53.185Z,48.08
2022-12-01T18:01:25.423Z,48.78
2022-12-01T18:03:58.546Z,62.13
2022-12-01T18:06:26.954Z,50.42
2022-12-01T18:08:56.602Z,47.45
2022-12-01T18:11:26.009Z,48.40
2022-12-01T18:13:54.355Z,53.90
2022-12-01T18:16:25.101Z,54.47
2022-12-01T18:18:54.125Z,55.10
2022-12-01T18:21:23.969Z,56.75
2022-12-01T18:23:52.959Z,53.90
2022-12-01T18:26:22.350Z,57.08
2022-12-01T18:28:56.993Z,53.50
2022-12-01T18:31:26.342Z,45.00
2022-12-01T18:33:54.403Z,48.03
2022-12-01T18:36:24.509Z,44.28
2022-12-01T18:38:54.592Z,45.70
2022-12-01T18:41:23.510Z,43.28
2022-12-01T18:43:52.018Z,48.10
2022-12-01T18:46:21.763Z,52.38
2022-12-01T18:48:51.633Z,42.00
2022-12-01T18:51:23.773Z,51.28
2022-12-01T18:53:55.039Z,40.92
2022-12-01T18:56:23.601Z,40.13
2022-12-01T18:58:56.029Z,48.20
2022-12-01T19:01:31.912Z,46.35
2022-12-01T19:04:00.936Z,45.42
2022-12-01T19:06:30.742Z,51.22
2022-12-01T19:09:02.107Z,42.85
2022-12-01T19:11:33.520Z,47.88
2022-12-01T19:14:04.704Z,46.97
2022-12-01T19:16:34.460Z,50.28
2022-12-01T19:19:06.812Z,41.22
2022-12-01T19:21:37.561Z,42.05
2022-12-01T19:24:08.829Z,55.95
2022-12-01T19:26:37.408Z,53.38
2022-12-01T19:29:08.208Z,45.00
2022-12-01T19:31:37.940Z,53.58
2022-12-01T19:34:10.071Z,54.25
2022-12-01T19:36:41.338Z,47.83
2022-12-01T19:39:10.320Z,52.75
2022-12-01T19:41:40.840Z,53.72
2022-12-01T19:44:10.061Z,53.92
2022-12-01T19:46:40.420Z,44.72
2022-12-01T19:49:08.438Z,38.90
2022-12-01T19:51:40.065Z,56.70
2022-12-01T19:54:15.160Z,50.10
2022-12-01T19:56:43.426Z,59.53
2022-12-01T19:59:13.137Z,54.10
2022-12-01T20:01:42.856Z,41.38
2022-12-01T20:04:11.195Z,48.13
2022-12-01T20:06:39.254Z,52.63
2022-12-01T20:09:13.360Z,46.30
2022-12-01T20:11:41.834Z,42.35
2022-12-01T20:14:11.787Z,46.70
2022-12-01T20:16:40.625Z,42.08
2022-12-01T20:19:11.253Z,45.42
2022-12-01T20:21:43.346Z,54.25
2022-12-01T20:24:13.625Z,55.67
2022-12-01T20:26:47.514Z,51.45
2022-12-01T20:29:22.362Z,54.03
2022-12-01T20:31:54.413Z,54.10
2022-12-01T20:34:27.977Z,48.13
2022-12-01T20:36:57.272Z,46.15
2022-12-01T20:39:25.684Z,44.30
2022-12-01T20:41:53.912Z,48.97
2022-12-01T20:44:22.254Z,41.20
2022-12-01T20:46:51.091Z,42.05
2022-12-01T20:49:21.368Z,37.78
2022-12-01T20:51:55.251Z,41.75
2022-12-01T20:54:29.096Z,45.33
2022-12-01T20:56:59.609Z,57.47
2022-12-01T20:59:32.035Z,41.97
2022-12-01T21:02:00.289Z,37.50
2022-12-01T21:04:30.819Z,42.88
2022-12-01T21:07:01.077Z,47.30
2022-12-01T21:09:30.465Z,47.03
2022-12-01T21:12:20.668Z,35.63
2022-12-01T21:15:01.079Z,51.38
2022-12-01T21:17:34.135Z,37.90
2022-12-01T21:20:12.867Z,34.88
2022-12-01T21:22:42.475Z,35.15
2022-12-01T21:25:15.428Z,35.05
2022-12-01T21:27:43.970Z,34.65
2022-12-01T21:30:18.119Z,41.33
2022-12-01T21:32:47.721Z,40.58
2022-12-01T21:35:19.183Z,39.80
2022-12-01T21:37:49.497Z,40.90
2022-12-01T21:40:22.079Z,38.72
2022-12-01T21:42:51.265Z,40.53
2022-12-01T21:45:23.902Z,35.05
2022-12-01T21:47:52.003Z,33.47
2022-12-01T21:50:23.440Z,35.58
2022-12-01T21:52:53.014Z,35.83
2022-12-01T21:55:37.716Z,31.48
2022-12-01T21:58:28.169Z,27.08
2022-12-01T22:00:57.976Z,27.33
2022-12-01T22:03:32.908Z,32.55
2022-12-01T22:08:55.041Z,31.92
2022-12-01T22:11:24.816Z,34.78
2022-12-01T22:14:00.254Z,30.35
2022-12-01T22:16:30.924Z,31.92
2022-12-01T22:19:00.446Z,30.63
2022-12-01T22:21:38.249Z,32.60
2022-12-01T22:24:23.825Z,29.10
2022-12-01T22:27:11.954Z,26.02
2022-12-01T22:29:43.051Z,35.85
2022-12-01T22:32:37.353Z,38.25
2022-12-01T22:35:27.210Z,32.72
2022-12-01T22:37:59.143Z,33.55
2022-12-01T22:40:38.666Z,28.27
2022-12-01T22:43:32.960Z,32.63
2022-12-01T22:46:27.545Z,34.17
2022-12-01T22:48:57.481Z,47.22
2022-12-01T22:51:37.137Z,47.13
2022-12-01T22:54:27.271Z,52.20
2022-12-01T22:57:04.916Z,45.95
2022-12-01T22:59:37.036Z,47.30
2022-12-01T23:02:20.426Z,40.75
2022-12-01T23:04:50.788Z,41.97
2022-12-01T23:07:28.592Z,42.25
2022-12-01T23:09:58.903Z,53.85
2022-12-01T23:12:30.471Z,49.90
2022-12-01T23:15:01.736Z,46.85
2022-12-01T23:17:31.433Z,48.10
2022-12-01T23:20:23.844Z,44.33
2022-12-01T23:22:54.358Z,43.05
2022-12-01T23:25:23.471Z,40.55
2022-12-01T23:27:54.453Z,38.72
2022-12-01T23:30:24.163Z,32.47
2022-12-01T23:33:04.625Z,36.72
2022-12-01T23:35:37.334Z,39.97
2022-12-01T23:38:05.258Z,35.22
2022-12-01T23:40:35.281Z,39.38
2022-12-01T23:43:16.639Z,36.50
2022-12-01T23:45:45.470Z,28.85
2022-12-01T23:48:19.251Z,38.08
2022-12-01T23:50:48.555Z,33.55
2022-12-01T23:53:34.520Z,39.10
2022-12-01T23:56:07.161Z,32.55
2022-12-01T23:58:36.748Z,30.15
